Time;durP1;ratioP1;P1;durP2;ratioP2;P2;SDS_P1;SDS_P2;PMS_P1;PMS_P2;Temp;Humidity;BMP_temperature;BMP_pressure;BME280_temperature;BME280_humidity;BME280_pressure;Samples;Min_cycle;Max_cycle;Signal;HPM_P1;HPM_P2
2022/02/10 00:16:51;;;;;;;9.73;5.88;;;;;;;;;;4981205;28;20054;-69
2022/02/10 00:22:16;;;;;;;11.32;5.90;;;;;;;;;;4980812;28;20051;-69
2022/02/10 00:35:39;;;;;;;8.85;5.43;;;;;;;;;;4955574;29;20055;-69
2022/02/10 00:38:06;;;;;;;9.73;6.03;;;;;;;;;;4955712;29;20110;-70
2022/02/10 00:40:35;;;;;;;11.32;6.97;;;;;;;;;;4955552;28;20055;-69
2022/02/10 00:43:04;;;;;;;12.50;5.80;;;;;;;;;;4961479;28;20047;-70
2022/02/10 00:45:32;;;;;;;10.07;6.00;;;;;;;;;;4974781;28;20054;-69
2022/02/10 00:48:03;;;;;;;8.23;5.20;;;;;;;;;;4974712;28;20458;-69
2022/02/10 00:50:30;;;;;;;11.30;6.00;;;;;;;;;;4974392;28;20055;-70
2022/02/10 00:53:11;;;;;;;9.40;4.65;;;;;;;;;;4974010;28;20498;-70
2022/02/10 00:55:40;;;;;;;8.82;5.68;;;;;;;;;;4974615;28;20054;-70
2022/02/10 00:58:10;;;;;;;9.15;5.40;;;;;;;;;;4988977;28;20054;-69
2022/02/10 01:02:20;;;;;;;9.37;5.47;;;;;;;;;;4974524;28;20138;-69
2022/02/10 01:30:57;;;;;;;8.82;4.70;;;;;;;;;;4972784;28;20105;-69
2022/02/10 01:33:24;;;;;;;10.57;5.72;;;;;;;;;;4972810;28;20051;-69
2022/02/10 01:35:51;;;;;;;7.38;5.45;;;;;;;;;;4973399;28;20102;-69
2022/02/10 01:38:17;;;;;;;9.70;6.25;;;;;;;;;;4973177;28;20058;-69
2022/02/10 02:05:41;;;;;;;10.20;5.43;;;;;;;;;;4971990;28;20124;-69
2022/02/10 02:08:08;;;;;;;8.32;5.55;;;;;;;;;;4986138;28;20054;-69
2022/02/10 02:10:35;;;;;;;6.20;4.93;;;;;;;;;;4971821;28;20502;-69
2022/02/10 02:13:03;;;;;;;7.32;4.40;;;;;;;;;;4972438;28;20078;-69
2022/02/10 02:15:30;;;;;;;10.90;5.20;;;;;;;;;;4973111;28;20101;-69
2022/02/10 02:17:57;;;;;;;8.65;4.95;;;;;;;;;;4971697;28;20058;-69
2022/02/10 02:20:23;;;;;;;7.05;5.28;;;;;;;;;;4972782;28;20055;-69
2022/02/10 02:22:50;;;;;;;7.75;5.00;;;;;;;;;;4972787;28;20113;-69
2022/02/10 02:25:17;;;;;;;10.50;5.70;;;;;;;;;;4972267;28;20113;-69
2022/02/10 02:27:49;;;;;;;7.60;4.97;;;;;;;;;;4972972;28;20450;-70
2022/02/10 02:30:21;;;;;;;8.70;4.75;;;;;;;;;;4972789;28;20054;-69
2022/02/10 02:33:14;;;;;;;8.03;5.23;;;;;;;;;;4972529;28;20047;-70
2022/02/10 02:36:06;;;;;;;6.60;4.80;;;;;;;;;;4972728;28;20046;-69
2022/02/10 03:08:38;;;;;;;7.43;4.67;;;;;;;;;;4972827;28;20063;-69
2022/02/10 03:11:11;;;;;;;6.97;4.32;;;;;;;;;;4972562;28;20572;-69
2022/02/10 03:13:44;;;;;;;9.65;4.75;;;;;;;;;;4972409;28;20046;-69
2022/02/10 03:19:28;;;;;;;7.78;4.40;;;;;;;;;;4972221;28;20520;-69
2022/02/10 04:08:06;;;;;;;5.70;3.80;;;;;;;;;;4975295;28;20113;-70
2022/02/10 04:11:02;;;;;;;4.63;3.53;;;;;;;;;;4975137;28;20054;-70
2022/02/10 04:13:57;;;;;;;6.65;4.53;;;;;;;;;;4974589;28;20074;-70
2022/02/10 04:16:28;;;;;;;6.35;4.13;;;;;;;;;;4975034;28;20399;-69
2022/02/10 04:22:08;;;;;;;8.15;3.47;;;;;;;;;;5004133;23;20051;-67
2022/02/10 04:28:11;;;;;;;7.45;4.43;;;;;;;;;;4997070;28;20049;-69
2022/02/10 04:30:33;;;;;;;7.53;4.30;;;;;;;;;;5014639;28;20415;-68
2022/02/10 04:39:07;;;;;;;6.63;4.05;;;;;;;;;;4998995;28;20076;-68
2022/02/10 04:44:26;;;;;;;5.78;3.75;;;;;;;;;;4974863;28;20050;-69
2022/02/10 04:58:21;;;;;;;8.40;3.60;;;;;;;;;;4994362;28;20050;-68
2022/02/10 05:22:36;;;;;;;6.75;3.20;;;;;;;;;;4993578;28;20109;-68
2022/02/10 05:35:49;;;;;;;5.63;2.83;;;;;;;;;;4993844;28;20112;-68
2022/02/10 05:38:37;;;;;;;4.38;2.90;;;;;;;;;;4990909;28;20050;-69
2022/02/10 05:51:38;;;;;;;4.70;2.60;;;;;;;;;;4993234;28;20054;-68
2022/02/10 06:52:58;;;;;;;6.35;3.17;;;;;;;;;;4991611;28;20104;-75
2022/02/10 07:06:38;;;;;;;4.85;3.33;;;;;;;;;;4993643;28;20050;-70
2022/02/10 07:47:49;;;;;;;5.82;2.53;;;;;;;;;;4988621;28;20113;-69
2022/02/10 08:00:38;;;;;;;5.70;2.45;;;;;;;;;;4981991;28;20399;-68
2022/02/10 09:08:11;;;;;;;6.97;3.15;;;;;;;;;;4992480;28;20101;-72
2022/02/10 10:02:01;;;;;;;4.53;2.55;;;;;;;;;;4991314;28;20058;-68
2022/02/10 10:04:45;;;;;;;5.60;2.22;;;;;;;;;;4991432;28;20097;-68
2022/02/10 10:07:31;;;;;;;8.38;2.78;;;;;;;;;;4991327;28;20174;-68
2022/02/10 10:26:58;;;;;;;7.45;3.10;;;;;;;;;;4983400;28;20043;-67
2022/02/10 10:54:30;;;;;;;8.88;3.38;;;;;;;;;;4994365;28;20043;-70
2022/02/10 10:57:03;;;;;;;7.07;3.38;;;;;;;;;;4979597;28;20100;-71
2022/02/10 11:39:10;;;;;;;8.80;4.18;;;;;;;;;;4976278;28;20570;-73
2022/02/10 11:41:45;;;;;;;11.45;4.55;;;;;;;;;;4976345;28;20567;-70
2022/02/10 12:01:36;;;;;;;10.52;5.05;;;;;;;;;;4986298;28;20050;-69
2022/02/10 13:23:25;;;;;;;9.18;5.75;;;;;;;;;;4980634;28;20062;-67
2022/02/10 13:48:47;;;;;;;7.55;5.30;;;;;;;;;;4984516;28;20465;-67
2022/02/10 14:28:18;;;;;;;12.73;5.90;;;;;;;;;;4979951;28;20069;-70
2022/02/10 14:30:45;;;;;;;14.88;6.25;;;;;;;;;;4993193;28;20058;-72
2022/02/10 14:33:13;;;;;;;14.77;6.50;;;;;;;;;;4982731;28;20112;-73
2022/02/10 14:38:44;;;;;;;13.82;6.32;;;;;;;;;;4984859;28;20060;-70
2022/02/10 15:17:32;;;;;;;14.73;6.30;;;;;;;;;;4984005;28;20494;-65
2022/02/10 16:19:47;;;;;;;11.90;6.32;;;;;;;;;;4958671;28;20469;-65
2022/02/10 16:27:23;;;;;;;;;;;;;;;;;;4982345;28;20579;-63
2022/02/10 16:29:53;;;;;;;13.90;7.03;;;;;;;;;;4984056;28;20173;-64
2022/02/10 16:32:24;;;;;;;10.10;7.18;;;;;;;;;;4982079;28;20054;-64
2022/02/10 16:34:57;;;;;;;14.55;6.97;;;;;;;;;;4982297;28;20058;-64
2022/02/10 16:37:29;;;;;;;;;;;;;;;;;;4979102;28;20058;-64
2022/02/10 16:40:01;;;;;;;17.33;7.63;;;;;;;;;;4981304;28;19996;-64
2022/02/10 16:42:32;;;;;;;14.02;8.23;;;;;;;;;;4981037;28;20062;-64
2022/02/10 16:45:04;;;;;;;16.35;7.53;;;;;;;;;;4984544;28;20089;-68
2022/02/10 16:47:34;;;;;;;12.20;6.75;;;;;;;;;;4980114;28;20054;-65
2022/02/10 16:50:05;;;;;;;12.88;7.57;;;;;;;;;;4992307;28;20096;-64
2022/02/10 16:52:43;;;;;;;9.73;5.70;;;;;;;;;;4983108;28;20058;-65
2022/02/10 16:58:20;;;;;;;6.63;5.00;;;;;;;;;;4981081;28;20371;-64
2022/02/10 17:25:23;;;;;;;12.27;4.30;;;;;;;;;;4980068;28;20774;-65
2022/02/10 17:27:57;;;;;;;5.57;3.72;;;;;;;;;;4977498;28;20054;-65
2022/02/10 17:31:01;;;;;;;7.38;3.60;;;;;;;;;;4977649;28;20141;-65
2022/02/10 17:34:02;;;;;;;8.23;4.45;;;;;;;;;;4982592;28;20054;-65
2022/02/10 17:36:29;;;;;;;6.22;3.92;;;;;;;;;;4979344;28;20050;-65
2022/02/10 17:52:38;;;;;;;9.27;4.13;;;;;;;;;;4979749;28;20413;-64
2022/02/10 17:55:09;;;;;;;7.55;3.90;;;;;;;;;;4981722;28;20510;-64
2022/02/10 17:57:37;;;;;;;6.45;3.30;;;;;;;;;;4982646;28;20481;-64
2022/02/10 18:00:06;;;;;;;5.38;3.50;;;;;;;;;;4980418;28;20054;-65
2022/02/10 18:02:32;;;;;;;4.75;3.60;;;;;;;;;;4979748;28;20057;-65
2022/02/10 18:05:01;;;;;;;5.15;3.30;;;;;;;;;;4980304;28;20049;-64
2022/02/10 18:07:27;;;;;;;6.45;3.70;;;;;;;;;;4980524;28;20058;-65
2022/02/10 18:10:10;;;;;;;8.18;3.80;;;;;;;;;;4981361;28;20042;-64
2022/02/10 18:15:15;;;;;;;6.20;3.92;;;;;;;;;;4983024;28;20053;-65
2022/02/10 18:18:05;;;;;;;8.73;4.13;;;;;;;;;;4979662;28;20043;-65
2022/02/10 18:20:39;;;;;;;6.50;3.65;;;;;;;;;;4977507;28;20047;-65
2022/02/10 18:23:19;;;;;;;8.38;4.05;;;;;;;;;;4981358;28;20054;-65
2022/02/10 18:26:05;;;;;;;5.88;4.03;;;;;;;;;;4978496;28;20108;-65
2022/02/10 18:28:56;;;;;;;5.57;3.85;;;;;;;;;;4980629;28;20165;-64
2022/02/10 19:01:53;;;;;;;18.45;10.00;;;;;;;;;;4982780;28;20085;-64
2022/02/10 19:09:29;;;;;;;11.07;6.40;;;;;;;;;;4973326;28;20478;-64
2022/02/10 19:12:00;;;;;;;6.82;5.28;;;;;;;;;;4973208;28;20102;-65
2022/02/10 19:14:28;;;;;;;8.52;4.88;;;;;;;;;;4973855;28;20129;-64
2022/02/10 19:16:54;;;;;;;7.40;4.78;;;;;;;;;;4974090;28;20473;-64
2022/02/10 19:19:21;;;;;;;6.20;4.40;;;;;;;;;;4973489;28;20150;-65
2022/02/10 19:21:48;;;;;;;7.95;5.25;;;;;;;;;;4973834;28;20528;-65
2022/02/10 19:24:16;;;;;;;6.68;4.85;;;;;;;;;;4973239;28;20054;-64
2022/02/10 19:26:50;;;;;;;9.50;5.18;;;;;;;;;;4973907;28;20062;-64
2022/02/10 19:29:18;;;;;;;6.65;5.00;;;;;;;;;;4974297;28;20078;-64
2022/02/10 19:31:46;;;;;;;6.80;4.50;;;;;;;;;;4973906;28;20055;-64
2022/02/10 19:34:13;;;;;;;3.95;3.55;;;;;;;;;;4973893;28;20055;-64
2022/02/10 19:37:00;;;;;;;5.03;3.28;;;;;;;;;;4973800;28;20502;-66
2022/02/10 19:39:27;;;;;;;5.45;3.72;;;;;;;;;;4974118;28;20057;-67
2022/02/10 19:41:54;;;;;;;4.88;3.17;;;;;;;;;;4973922;28;20105;-65
2022/02/10 19:44:21;;;;;;;4.57;3.17;;;;;;;;;;4973165;28;20058;-66
2022/02/10 19:46:48;;;;;;;5.57;3.25;;;;;;;;;;4973773;28;20051;-66
2022/02/10 19:49:20;;;;;;;4.80;3.15;;;;;;;;;;4973527;28;20460;-66
2022/02/10 19:51:47;;;;;;;6.23;3.37;;;;;;;;;;4973553;28;20051;-66
2022/02/10 19:54:18;;;;;;;4.78;3.40;;;;;;;;;;4973193;28;20058;-66
2022/02/10 19:56:45;;;;;;;6.22;3.65;;;;;;;;;;4973059;28;20101;-65
2022/02/10 19:59:18;;;;;;;6.35;3.28;;;;;;;;;;4973459;28;20102;-65
2022/02/10 20:01:47;;;;;;;5.55;3.08;;;;;;;;;;4972491;28;20055;-64
2022/02/10 20:04:14;;;;;;;5.00;3.30;;;;;;;;;;4973308;28;20462;-65
2022/02/10 20:06:41;;;;;;;7.53;4.78;;;;;;;;;;4973207;28;20050;-65
2022/02/10 20:09:08;;;;;;;6.97;3.72;;;;;;;;;;4973436;28;20687;-63
2022/02/10 20:11:34;;;;;;;7.03;3.47;;;;;;;;;;4973093;28;20462;-65
2022/02/10 20:14:01;;;;;;;8.05;3.40;;;;;;;;;;4973329;28;20055;-65
2022/02/10 20:16:27;;;;;;;6.93;3.70;;;;;;;;;;4973115;28;20109;-64
2022/02/10 20:18:54;;;;;;;6.25;4.18;;;;;;;;;;4973389;28;20046;-63
2022/02/10 20:21:21;;;;;;;7.22;4.30;;;;;;;;;;4972757;28;20054;-65
2022/02/10 20:23:48;;;;;;;7.78;4.50;;;;;;;;;;4971437;28;20518;-66
2022/02/10 20:26:15;;;;;;;11.32;5.75;;;;;;;;;;4974463;28;20047;-65
2022/02/10 20:28:43;;;;;;;6.22;4.50;;;;;;;;;;4985836;28;20101;-70
2022/02/10 20:31:11;;;;;;;6.60;4.00;;;;;;;;;;4981403;28;20042;-65
2022/02/10 20:33:37;;;;;;;10.27;3.80;;;;;;;;;;4983072;28;20458;-66
2022/02/10 20:36:05;;;;;;;6.07;3.70;;;;;;;;;;4983037;28;20711;-65
2022/02/10 20:38:36;;;;;;;7.07;3.83;;;;;;;;;;4979290;28;20058;-65
2022/02/10 20:41:07;;;;;;;7.43;4.03;;;;;;;;;;4979574;28;20050;-65
2022/02/10 20:43:34;;;;;;;8.00;4.50;;;;;;;;;;4997320;28;20053;-65
2022/02/10 20:46:04;;;;;;;7.90;4.18;;;;;;;;;;4986005;28;20136;-65
2022/02/10 20:48:33;;;;;;;6.68;4.18;;;;;;;;;;4986100;28;20058;-63
2022/02/10 20:51:00;;;;;;;8.30;3.65;;;;;;;;;;4992618;28;20055;-64
2022/02/10 20:53:29;;;;;;;5.70;4.20;;;;;;;;;;4973947;28;20058;-65
2022/02/10 20:55:59;;;;;;;5.43;3.67;;;;;;;;;;4974654;28;20562;-64
2022/02/10 20:58:28;;;;;;;5.65;3.60;;;;;;;;;;4974321;28;20086;-64
2022/02/10 21:00:58;;;;;;;5.47;3.80;;;;;;;;;;4974630;28;20399;-64
2022/02/10 21:03:27;;;;;;;5.85;4.03;;;;;;;;;;4974133;28;20133;-64
2022/02/10 21:09:06;;;;;;;6.68;4.40;;;;;;;;;;4972117;28;20121;-64
2022/02/10 21:11:32;;;;;;;7.55;4.75;;;;;;;;;;4974402;28;20054;-64
2022/02/10 21:14:02;;;;;;;5.90;3.88;;;;;;;;;;4974330;28;20082;-63
2022/02/10 21:16:29;;;;;;;4.88;3.97;;;;;;;;;;4971533;28;20054;-64
2022/02/10 21:18:56;;;;;;;7.13;4.20;;;;;;;;;;4972561;28;20465;-64
2022/02/10 21:21:23;;;;;;;5.07;3.90;;;;;;;;;;4973427;28;20097;-64
2022/02/10 21:23:56;;;;;;;6.00;3.78;;;;;;;;;;4971407;28;20097;-64
2022/02/10 21:26:29;;;;;;;4.63;3.85;;;;;;;;;;4973481;28;20081;-64
2022/02/10 21:29:01;;;;;;;6.30;4.10;;;;;;;;;;4973803;28;20047;-64
2022/02/10 21:31:28;;;;;;;3.80;3.35;;;;;;;;;;4974017;28;20581;-64
2022/02/10 21:34:11;;;;;;;4.38;3.53;;;;;;;;;;4973550;28;20105;-64
2022/02/10 21:36:56;;;;;;;5.50;3.92;;;;;;;;;;4974060;28;20117;-64
2022/02/10 21:39:31;;;;;;;5.88;4.05;;;;;;;;;;4973661;28;20082;-64
2022/02/10 22:02:03;;;;;;;10.40;6.20;;;;;;;;;;4973599;28;20535;-64
2022/02/10 22:06:33;;;;;;;8.55;4.60;;;;;;;;;;4973403;28;20047;-64
2022/02/10 22:11:35;;;;;;;8.27;5.45;;;;;;;;;;4972990;28;20062;-64
2022/02/10 22:17:15;;;;;;;10.18;5.25;;;;;;;;;;4973139;28;20047;-64
2022/02/10 22:19:39;;;;;;;8.70;5.15;;;;;;;;;;4974362;28;20062;-64
2022/02/10 22:22:11;;;;;;;10.15;5.95;;;;;;;;;;4972708;28;20058;-64
2022/02/10 22:24:37;;;;;;;8.68;6.18;;;;;;;;;;4972866;28;20054;-64
2022/02/10 22:27:10;;;;;;;14.80;6.85;;;;;;;;;;4972919;28;20047;-64
2022/02/10 22:29:44;;;;;;;12.38;7.40;;;;;;;;;;4973113;28;20051;-64
2022/02/10 22:34:41;;;;;;;8.80;6.43;;;;;;;;;;4972889;28;20101;-64
2022/02/10 22:37:10;;;;;;;11.27;6.97;;;;;;;;;;4972817;28;20183;-64
2022/02/10 22:39:44;;;;;;;11.05;7.35;;;;;;;;;;4973045;28;20047;-63
2022/02/10 22:42:11;;;;;;;11.20;6.82;;;;;;;;;;4972886;28;20502;-64
2022/02/10 22:44:38;;;;;;;10.48;5.82;;;;;;;;;;4973155;28;20054;-64
2022/02/10 22:47:06;;;;;;;10.10;6.47;;;;;;;;;;4972850;28;20553;-67
2022/02/10 22:49:33;;;;;;;9.20;5.78;;;;;;;;;;4973918;28;20046;-64
2022/02/10 22:51:59;;;;;;;9.30;6.70;;;;;;;;;;4972523;28;20083;-64
2022/02/10 22:54:26;;;;;;;10.13;5.43;;;;;;;;;;4972699;28;20051;-64
2022/02/10 22:56:53;;;;;;;9.25;6.25;;;;;;;;;;4972550;28;20486;-64
2022/02/10 22:59:20;;;;;;;11.05;5.70;;;;;;;;;;4987362;28;20055;-64
2022/02/10 23:01:47;;;;;;;8.65;5.10;;;;;;;;;;4972673;28;20574;-64
2022/02/10 23:04:14;;;;;;;8.90;5.47;;;;;;;;;;4972330;28;20446;-64
2022/02/10 23:06:40;;;;;;;9.07;4.93;;;;;;;;;;4972819;28;20050;-65
2022/02/10 23:11:56;;;;;;;6.68;4.68;;;;;;;;;;4972277;28;20117;-64
2022/02/10 23:14:24;;;;;;;9.13;5.55;;;;;;;;;;4972146;28;20133;-64
2022/02/10 23:16:50;;;;;;;9.00;5.25;;;;;;;;;;4972482;28;20054;-64
2022/02/10 23:19:17;;;;;;;13.55;5.97;;;;;;;;;;4972335;28;20055;-64
2022/02/10 23:21:43;;;;;;;8.88;5.47;;;;;;;;;;4972474;28;20050;-64
2022/02/10 23:24:10;;;;;;;7.05;4.70;;;;;;;;;;4971744;28;20109;-64
2022/02/10 23:26:36;;;;;;;7.45;5.05;;;;;;;;;;4972436;28;20054;-63
2022/02/10 23:29:04;;;;;;;7.65;5.28;;;;;;;;;;4972318;28;20497;-64
2022/02/10 23:31:30;;;;;;;8.68;5.68;;;;;;;;;;4972354;28;20125;-64
2022/02/10 23:34:00;;;;;;;8.82;6.28;;;;;;;;;;4971946;28;20097;-64
2022/02/10 23:39:15;;;;;;;11.80;6.20;;;;;;;;;;4975668;28;20055;-64
2022/02/10 23:44:20;;;;;;;10.05;5.10;;;;;;;;;;4975519;28;20133;-64
2022/02/10 23:46:47;;;;;;;9.00;5.07;;;;;;;;;;4976096;28;20482;-64
2022/02/10 23:49:18;;;;;;;7.72;5.30;;;;;;;;;;4975594;28;20050;-65
2022/02/10 23:51:54;;;;;;;7.93;5.25;;;;;;;;;;4975765;28;20105;-65
2022/02/10 23:54:21;;;;;;;8.82;5.55;;;;;;;;;;4975433;28;20403;-63
2022/02/10 23:56:58;;;;;;;8.18;5.10;;;;;;;;;;4975671;28;20043;-64
2022/02/10 23:59:37;;;;;;;7.05;5.65;;;;;;;;;;4975172;28;20097;-64
